createdAt,value
2019-02-04T00:01:31.236Z,2.60
2019-02-04T00:03:59.735Z,2.60
2019-02-04T00:06:28.084Z,2.70
2019-02-04T00:08:56.988Z,2.70
2019-02-04T00:11:25.755Z,2.70
2019-02-04T00:13:54.483Z,2.70
2019-02-04T00:16:23.874Z,2.70
2019-02-04T00:18:53.007Z,2.50
2019-02-04T00:21:21.338Z,2.50
2019-02-04T00:23:48.914Z,2.50
2019-02-04T00:26:17.075Z,2.40
2019-02-04T00:28:45.684Z,2.40
2019-02-04T00:31:13.336Z,2.30
2019-02-04T00:33:41.692Z,2.50
2019-02-04T00:36:10.006Z,2.60
2019-02-04T00:38:38.360Z,2.60
2019-02-04T00:41:05.807Z,2.50
2019-02-04T00:43:34.018Z,2.50
2019-02-04T00:46:02.976Z,2.60
2019-02-04T00:48:33.592Z,2.60
2019-02-04T00:51:01.341Z,2.40
2019-02-04T00:53:31.426Z,2.20
2019-02-04T00:55:59.678Z,2.30
2019-02-04T00:58:27.650Z,2.30
2019-02-04T01:00:58.798Z,2.20
2019-02-04T01:03:27.158Z,2.20
2019-02-04T01:05:54.732Z,2.20
2019-02-04T01:08:23.110Z,2.20
2019-02-04T01:10:51.494Z,2.20
2019-02-04T01:13:19.798Z,2.30
2019-02-04T01:15:49.454Z,2.40
2019-02-04T01:20:45.690Z,2.50
2019-02-04T01:23:14.752Z,2.40
2019-02-04T01:25:45.336Z,2.20
2019-02-04T01:28:15.498Z,2.10
2019-02-04T01:30:44.490Z,2.00
2019-02-04T01:33:13.052Z,2.00
2019-02-04T01:35:41.015Z,2.00
2019-02-04T01:38:09.963Z,2.10
2019-02-04T01:40:38.006Z,2.10
2019-02-04T01:43:06.974Z,2.20
2019-02-04T01:45:35.546Z,2.10
2019-02-04T01:48:04.146Z,2.00
2019-02-04T01:50:32.699Z,2.00
2019-02-04T01:53:01.432Z,2.00
2019-02-04T01:55:29.890Z,2.00
2019-02-04T01:57:58.615Z,2.00
2019-02-04T02:00:31.595Z,1.90
2019-02-04T02:02:59.327Z,1.90
2019-02-04T02:05:28.599Z,1.90
2019-02-04T02:07:56.903Z,1.90
2019-02-04T02:10:25.804Z,1.90
2019-02-04T02:12:54.701Z,1.80
2019-02-04T02:15:23.699Z,1.80
2019-02-04T02:17:52.497Z,1.70
2019-02-04T02:20:23.509Z,1.70
2019-02-04T02:22:51.067Z,1.70
2019-02-04T02:25:19.091Z,1.70
2019-02-04T02:27:47.234Z,1.70
2019-02-04T02:30:18.765Z,1.70
2019-02-04T02:32:48.946Z,1.80
2019-02-04T02:35:17.082Z,1.80
2019-02-04T02:37:45.743Z,1.70
2019-02-04T02:40:17.440Z,1.70
2019-02-04T02:42:45.987Z,1.70
2019-02-04T02:45:13.994Z,1.70
2019-02-04T02:47:42.376Z,1.70
2019-02-04T02:50:10.406Z,1.70
2019-02-04T02:52:38.496Z,1.80
2019-02-04T02:55:09.519Z,1.70
2019-02-04T02:57:36.865Z,1.70
2019-02-04T03:00:07.744Z,1.70
2019-02-04T03:02:37.224Z,1.80
2019-02-04T03:05:07.757Z,1.90
2019-02-04T03:07:36.249Z,1.90
2019-02-04T03:10:08.032Z,2.00
2019-02-04T03:15:09.378Z,2.00
2019-02-04T03:17:37.376Z,1.90
2019-02-04T03:20:06.340Z,1.90
2019-02-04T03:22:34.428Z,1.60
2019-02-04T03:25:02.389Z,1.50
2019-02-04T03:27:30.665Z,1.50
2019-02-04T03:30:00.580Z,1.50
2019-02-04T03:32:29.610Z,1.40
2019-02-04T03:34:59.315Z,1.60
2019-02-04T03:37:29.085Z,1.60
2019-02-04T03:39:57.983Z,1.60
2019-02-04T03:42:28.159Z,1.60
2019-02-04T03:44:57.626Z,1.70
2019-02-04T03:47:26.417Z,1.70
2019-02-04T03:49:54.069Z,1.60
2019-02-04T03:52:22.290Z,1.70
2019-02-04T03:54:50.219Z,1.80
2019-02-04T03:57:18.616Z,1.80
2019-02-04T03:59:47.517Z,1.80
2019-02-04T04:02:16.431Z,1.80
2019-02-04T04:04:44.585Z,1.80
2019-02-04T04:07:13.038Z,1.80
2019-02-04T04:09:43.757Z,1.70
2019-02-04T04:12:13.627Z,1.60
2019-02-04T04:14:42.012Z,1.60
2019-02-04T04:17:10.946Z,1.60
2019-02-04T04:19:39.136Z,1.70
2019-02-04T04:22:07.304Z,1.70
2019-02-04T04:24:36.700Z,1.60
2019-02-04T04:27:05.077Z,1.50
2019-02-04T04:29:33.612Z,1.40
2019-02-04T04:32:01.937Z,1.40
2019-02-04T04:34:29.494Z,1.40
2019-02-04T04:36:58.121Z,1.30
2019-02-04T04:39:27.375Z,1.30
2019-02-04T04:41:56.528Z,1.20
2019-02-04T04:44:25.279Z,1.30
2019-02-04T04:49:20.807Z,1.20
2019-02-04T04:51:48.875Z,1.20
2019-02-04T04:54:18.013Z,1.20
2019-02-04T04:56:47.875Z,1.10
2019-02-04T04:59:16.662Z,1.10
2019-02-04T05:01:45.203Z,1.00
2019-02-04T05:04:13.243Z,1.00
2019-02-04T05:06:41.216Z,0.90
2019-02-04T05:09:09.617Z,0.90
2019-02-04T05:14:05.840Z,1.00
2019-02-04T05:16:34.061Z,1.00
2019-02-04T05:19:02.378Z,1.00
2019-02-04T05:21:30.775Z,1.20
2019-02-04T05:26:26.807Z,1.30
2019-02-04T05:28:56.837Z,1.40
2019-02-04T05:36:20.834Z,1.20
2019-02-04T05:38:49.423Z,1.30
2019-02-04T05:41:17.655Z,1.30
2019-02-04T05:43:45.262Z,1.20
2019-02-04T05:46:13.534Z,1.20
2019-02-04T05:48:49.040Z,1.30
2019-02-04T05:51:11.414Z,1.30
2019-02-04T05:53:39.489Z,1.20
2019-02-04T05:56:08.668Z,2.30
2019-02-04T05:58:37.614Z,1.10
2019-02-04T06:01:06.091Z,1.10
2019-02-04T06:03:34.152Z,1.00
2019-02-04T06:06:02.524Z,0.90
2019-02-04T06:08:31.091Z,0.90
2019-02-04T06:10:59.070Z,0.90
2019-02-04T06:13:27.440Z,0.90
2019-02-04T06:15:56.027Z,0.90
2019-02-04T06:25:50.799Z,1.00
2019-02-04T06:30:48.059Z,0.80
2019-02-04T06:35:44.075Z,0.80
2019-02-04T06:40:40.032Z,0.70
2019-02-04T06:43:08.862Z,0.80
2019-02-04T06:45:37.978Z,0.80
2019-02-04T06:48:06.184Z,0.40
2019-02-04T06:50:34.259Z,0.90
2019-02-04T06:53:02.885Z,0.80
2019-02-04T06:57:59.736Z,0.80
2019-02-04T07:00:28.627Z,1.00
2019-02-04T07:02:58.245Z,1.10
2019-02-04T07:05:25.983Z,1.30
2019-02-04T07:07:54.468Z,0.90
2019-02-04T07:15:22.607Z,0.80
2019-02-04T07:17:51.686Z,0.80
2019-02-04T07:20:21.723Z,0.80
2019-02-04T07:25:18.861Z,0.80
2019-02-04T07:27:49.184Z,0.90
2019-02-04T07:30:20.892Z,0.90
2019-02-04T07:32:51.059Z,0.60
2019-02-04T07:37:47.413Z,0.80
2019-02-04T07:40:19.015Z,1.10
2019-02-04T07:42:47.557Z,1.20
2019-02-04T07:45:15.924Z,1.30
2019-02-04T07:47:43.672Z,1.30
2019-02-04T07:52:39.971Z,1.50
2019-02-04T07:55:10.104Z,2.20
2019-02-04T08:00:12.389Z,1.30
2019-02-04T08:02:40.831Z,1.70
2019-02-04T08:05:09.559Z,1.70
2019-02-04T08:10:06.053Z,1.90
2019-02-04T08:12:34.239Z,1.90
2019-02-04T08:17:30.287Z,1.90
2019-02-04T08:19:59.519Z,2.20
2019-02-04T08:22:26.942Z,2.00
2019-02-04T08:24:55.202Z,2.10
2019-02-04T08:32:26.262Z,2.50
2019-02-04T08:39:52.447Z,2.60
2019-02-04T08:42:21.956Z,3.40
2019-02-04T08:44:50.637Z,3.00
2019-02-04T08:47:22.667Z,2.90
2019-02-04T08:52:22.328Z,3.10
2019-02-04T08:54:50.835Z,3.20
2019-02-04T08:57:21.386Z,3.30
2019-02-04T09:02:18.017Z,3.50
2019-02-04T09:09:42.126Z,3.70
2019-02-04T09:12:11.121Z,3.80
2019-02-04T09:17:07.169Z,4.20
2019-02-04T09:19:35.641Z,4.20
2019-02-04T09:24:32.098Z,4.90
2019-02-04T09:27:00.034Z,5.60
2019-02-04T09:29:28.534Z,4.90
2019-02-04T09:34:25.059Z,5.50
2019-02-04T09:36:52.786Z,5.40
2019-02-04T09:39:21.569Z,5.40
2019-02-04T09:46:45.982Z,5.60
2019-02-04T09:49:14.339Z,5.50
2019-02-04T09:54:10.191Z,6.40
2019-02-04T09:56:38.955Z,6.40
2019-02-04T09:59:07.351Z,6.90
2019-02-04T10:01:35.343Z,7.00
2019-02-04T10:04:03.649Z,6.90
2019-02-04T10:06:31.356Z,7.10
2019-02-04T10:08:58.932Z,7.30
2019-02-04T10:11:27.112Z,7.40
2019-02-04T10:13:55.470Z,7.30
2019-02-04T10:18:51.622Z,7.90
2019-02-04T10:21:19.772Z,8.10
2019-02-04T10:23:48.143Z,8.50
2019-02-04T10:26:16.283Z,8.50
2019-02-04T10:28:45.019Z,8.70
2019-02-04T10:31:14.144Z,8.60
2019-02-04T10:33:42.148Z,9.00
2019-02-04T10:36:10.350Z,8.80
2019-02-04T10:38:38.425Z,9.20
2019-02-04T10:41:07.811Z,9.20
2019-02-04T10:43:35.891Z,9.00
2019-02-04T10:46:04.857Z,9.50
2019-02-04T10:48:34.835Z,9.50
2019-02-04T10:51:03.260Z,10.00
2019-02-04T10:53:32.754Z,10.60
2019-02-04T10:56:00.796Z,11.10
2019-02-04T10:58:29.235Z,11.10
2019-02-04T11:00:57.604Z,10.10
2019-02-04T11:03:25.937Z,10.20
2019-02-04T11:05:54.299Z,10.40
2019-02-04T11:08:22.420Z,10.30
2019-02-04T11:10:50.080Z,9.70
2019-02-04T11:13:18.343Z,9.20
2019-02-04T11:15:47.876Z,9.10
2019-02-04T11:18:16.863Z,8.90
2019-02-04T11:20:57.882Z,8.80
2019-02-04T11:23:16.766Z,8.80
2019-02-04T11:25:44.893Z,8.90
2019-02-04T11:28:14.159Z,9.00
2019-02-04T11:31:02.394Z,9.80
2019-02-04T11:33:33.528Z,10.50
2019-02-04T11:36:01.249Z,10.20
2019-02-04T11:38:29.738Z,10.00
2019-02-04T11:40:58.591Z,10.20
2019-02-04T11:43:26.651Z,9.90
2019-02-04T11:45:55.563Z,9.70
2019-02-04T11:48:23.871Z,9.30
2019-02-04T11:50:51.458Z,9.20
2019-02-04T11:53:31.959Z,9.40
2019-02-04T11:55:50.279Z,9.70
2019-02-04T11:58:19.390Z,9.80
2019-02-04T12:00:51.724Z,9.70
2019-02-04T12:03:21.653Z,9.80
2019-02-04T12:05:50.032Z,10.40
2019-02-04T12:08:19.134Z,10.30
2019-02-04T12:11:02.776Z,10.40
2019-02-04T12:15:59.649Z,11.80
2019-02-04T12:18:28.017Z,12.00
2019-02-04T12:25:57.113Z,14.20
2019-02-04T12:28:25.840Z,14.40
2019-02-04T12:30:55.579Z,14.50
2019-02-04T12:33:23.998Z,14.30
2019-02-04T12:38:20.912Z,13.90
2019-02-04T12:40:57.371Z,13.50
2019-02-04T12:43:27.271Z,13.60
2019-02-04T12:45:56.359Z,14.10
2019-02-04T12:48:27.075Z,14.80
2019-02-04T12:50:56.654Z,14.80
2019-02-04T12:53:26.161Z,14.60
2019-02-04T12:55:54.844Z,14.40
2019-02-04T12:58:22.674Z,14.20
2019-02-04T13:00:52.505Z,14.40
2019-02-04T13:03:52.177Z,13.60
2019-02-04T13:06:29.383Z,12.90
2019-02-04T13:08:57.094Z,12.90
2019-02-04T13:11:27.018Z,13.00
2019-02-04T13:13:57.847Z,12.70
2019-02-04T13:16:26.776Z,12.60
2019-02-04T13:18:58.578Z,13.00
2019-02-04T13:21:30.132Z,13.90
2019-02-04T13:23:58.564Z,15.40
2019-02-04T13:26:28.432Z,15.60
2019-02-04T13:28:56.870Z,15.90
2019-02-04T13:31:24.766Z,14.90
2019-02-04T13:33:56.548Z,13.70
2019-02-04T13:36:25.749Z,12.90
2019-02-04T13:38:54.178Z,12.30
2019-02-04T13:41:22.205Z,12.20
2019-02-04T13:43:51.178Z,11.10
2019-02-04T13:46:18.883Z,10.60
2019-02-04T13:48:47.314Z,10.40
2019-02-04T13:51:16.948Z,9.50
2019-02-04T13:53:48.773Z,9.50
2019-02-04T13:56:17.244Z,9.90
2019-02-04T14:01:12.829Z,9.80
2019-02-04T14:03:41.678Z,9.70
2019-02-04T14:06:09.742Z,9.60
2019-02-04T14:08:38.164Z,9.40
2019-02-04T14:11:06.302Z,9.00
2019-02-04T14:16:02.843Z,8.40
2019-02-04T14:18:31.216Z,8.40
2019-02-04T14:21:00.164Z,8.00
2019-02-04T14:23:28.981Z,8.00
2019-02-04T14:25:58.215Z,7.80
2019-02-04T14:28:26.234Z,7.70
2019-02-04T14:30:55.852Z,7.70
2019-02-04T14:33:24.355Z,7.60
2019-02-04T14:38:21.045Z,7.60
2019-02-04T14:40:50.031Z,7.60
2019-02-04T14:43:26.298Z,7.60
2019-02-04T14:46:33.179Z,7.30
2019-02-04T14:49:31.769Z,7.30
2019-02-04T14:52:28.399Z,7.20
2019-02-04T14:55:33.234Z,6.90
2019-02-04T14:58:35.310Z,6.90
2019-02-04T15:01:39.231Z,6.90
2019-02-04T15:04:58.208Z,6.70
2019-02-04T15:08:12.844Z,6.70
2019-02-04T15:10:55.682Z,6.60
2019-02-04T15:14:30.466Z,6.60
2019-02-04T15:17:40.772Z,6.60
2019-02-04T15:20:46.784Z,6.60
2019-02-04T15:23:41.322Z,6.60
2019-02-04T15:26:32.391Z,6.50
2019-02-04T15:29:17.104Z,6.50
2019-02-04T15:32:06.226Z,6.40
2019-02-04T15:35:21.669Z,6.40
2019-02-04T15:38:00.485Z,6.40
2019-02-04T15:40:40.519Z,6.30
2019-02-04T15:43:34.944Z,6.20
2019-02-04T15:46:43.350Z,6.20
2019-02-04T15:49:51.109Z,6.00
2019-02-04T15:52:19.824Z,6.00
2019-02-04T15:54:48.391Z,6.00
2019-02-04T15:57:16.911Z,5.90
2019-02-04T15:59:45.660Z,5.90
2019-02-04T16:02:13.639Z,5.90
2019-02-04T16:04:41.745Z,6.00
2019-02-04T16:07:11.349Z,5.90
2019-02-04T16:09:39.817Z,5.70
2019-02-04T16:12:08.510Z,5.80
2019-02-04T16:14:37.933Z,5.70
2019-02-04T16:17:08.927Z,5.80
2019-02-04T16:19:39.996Z,5.80
2019-02-04T16:22:07.965Z,5.70
2019-02-04T16:24:36.424Z,5.70
2019-02-04T16:27:05.225Z,5.70
2019-02-04T16:29:33.720Z,5.70
2019-02-04T16:32:03.298Z,5.80
2019-02-04T16:34:30.976Z,5.80
2019-02-04T16:36:59.476Z,5.70
2019-02-04T16:39:27.928Z,5.60
2019-02-04T16:41:57.562Z,5.60
2019-02-04T16:44:25.230Z,5.60
2019-02-04T16:46:54.665Z,5.50
2019-02-04T16:49:25.128Z,5.60
2019-02-04T16:51:53.618Z,5.60
2019-02-04T16:54:21.295Z,5.30
2019-02-04T16:56:50.034Z,5.30
2019-02-04T16:59:19.551Z,5.30
2019-02-04T17:04:15.350Z,5.20
2019-02-04T17:06:45.148Z,5.20
2019-02-04T17:09:14.775Z,5.30
2019-02-04T17:11:44.463Z,5.20
2019-02-04T17:14:14.050Z,5.20
2019-02-04T17:16:42.513Z,5.30
2019-02-04T17:19:10.613Z,5.30
2019-02-04T17:21:42.666Z,5.20
2019-02-04T17:24:10.852Z,5.20
2019-02-04T17:26:39.359Z,5.20
2019-02-04T17:29:09.476Z,5.20
2019-02-04T17:31:37.634Z,5.20
2019-02-04T17:34:06.828Z,5.10
2019-02-04T17:36:36.239Z,5.10
2019-02-04T17:39:07.792Z,5.10
2019-02-04T17:41:37.109Z,5.10
2019-02-04T17:44:07.149Z,5.20
2019-02-04T17:49:03.963Z,5.20
2019-02-04T17:54:05.223Z,4.60
2019-02-04T18:04:06.344Z,5.00
2019-02-04T18:06:34.388Z,4.90
2019-02-04T18:18:57.488Z,4.90
2019-02-04T18:21:25.508Z,4.70
2019-02-04T18:23:55.511Z,4.70
2019-02-04T18:26:27.616Z,8.30
2019-02-04T18:28:55.923Z,4.70
2019-02-04T18:31:24.944Z,5.00
2019-02-04T18:38:53.102Z,4.30
2019-02-04T18:43:50.207Z,4.50
2019-02-04T18:46:18.009Z,4.60
2019-02-04T18:48:49.265Z,4.30
2019-02-04T18:51:17.729Z,4.40
2019-02-04T18:58:51.537Z,4.20
2019-02-04T19:01:25.322Z,4.20
2019-02-04T19:03:53.654Z,4.20
2019-02-04T19:06:21.730Z,3.90
2019-02-04T19:08:50.016Z,4.20
2019-02-04T19:11:22.562Z,4.10
2019-02-04T19:18:47.911Z,4.00
2019-02-04T19:21:17.172Z,4.10
2019-02-04T19:24:09.044Z,4.00
2019-02-04T19:26:29.144Z,3.90
2019-02-04T19:29:05.427Z,3.90
2019-02-04T19:31:34.340Z,3.90
2019-02-04T19:34:07.203Z,3.80
2019-02-04T19:36:35.659Z,3.80
2019-02-04T19:39:05.883Z,3.70
2019-02-04T19:41:37.476Z,3.80
2019-02-04T19:51:34.227Z,3.90
2019-02-04T19:54:04.063Z,3.90
2019-02-04T19:56:34.005Z,3.80
2019-02-04T20:01:35.545Z,3.60
2019-02-04T20:04:04.123Z,3.70
2019-02-04T20:06:33.556Z,3.60
2019-02-04T20:09:05.993Z,3.60
2019-02-04T20:11:34.487Z,3.50
2019-02-04T20:14:03.137Z,3.50
2019-02-04T20:16:33.328Z,3.60
2019-02-04T20:19:01.140Z,3.70
2019-02-04T20:21:29.132Z,3.60
2019-02-04T20:23:57.197Z,3.60
2019-02-04T20:26:28.360Z,3.60
2019-02-04T20:28:57.513Z,3.60
2019-02-04T20:31:25.432Z,3.60
2019-02-04T20:33:53.487Z,3.60
2019-02-04T20:38:49.758Z,3.80
2019-02-04T20:41:20.831Z,3.80
2019-02-04T20:43:49.404Z,3.80
2019-02-04T20:46:17.147Z,3.80
2019-02-04T20:48:46.060Z,3.90
2019-02-04T20:51:16.883Z,4.50
2019-02-04T20:53:45.028Z,3.80
2019-02-04T20:58:45.331Z,3.80
2019-02-04T21:01:15.126Z,3.70
2019-02-04T21:03:43.161Z,3.70
2019-02-04T21:06:12.927Z,3.70
2019-02-04T21:08:42.625Z,3.70
2019-02-04T21:11:12.624Z,3.80
2019-02-04T21:13:40.891Z,3.80
2019-02-04T21:16:09.066Z,3.90
2019-02-04T21:18:38.357Z,3.80
2019-02-04T21:21:07.231Z,3.90
2019-02-04T21:23:36.116Z,3.80
2019-02-04T21:28:35.180Z,3.90
2019-02-04T21:31:03.963Z,3.90
2019-02-04T21:33:33.113Z,3.90
2019-02-04T21:36:01.625Z,3.90
2019-02-04T21:38:30.123Z,3.90
2019-02-04T21:41:01.425Z,3.80
2019-02-04T21:43:29.785Z,3.80
2019-02-04T21:46:00.503Z,3.90
2019-02-04T21:48:29.634Z,3.90
2019-02-04T21:51:01.060Z,3.90
2019-02-04T21:53:31.216Z,3.80
2019-02-04T21:56:00.346Z,3.90
2019-02-04T21:58:30.693Z,3.80
2019-02-04T22:00:58.940Z,3.90
2019-02-04T22:03:28.027Z,3.90
2019-02-04T22:05:57.164Z,3.90
2019-02-04T22:08:25.377Z,3.90
2019-02-04T22:10:54.161Z,3.90
2019-02-04T22:13:22.981Z,3.90
2019-02-04T22:18:27.532Z,3.90
2019-02-04T22:20:55.973Z,3.90
2019-02-04T22:28:24.293Z,4.00
2019-02-04T22:33:23.591Z,4.00
2019-02-04T22:35:51.379Z,4.00
2019-02-04T22:38:19.939Z,4.00
2019-02-04T22:45:46.829Z,4.00
2019-02-04T22:48:15.246Z,4.00
2019-02-04T22:50:43.700Z,4.00
2019-02-04T22:53:13.938Z,4.10
2019-02-04T22:55:42.443Z,4.00
2019-02-04T22:58:10.787Z,4.00
2019-02-04T23:01:07.550Z,4.00
2019-02-04T23:03:35.654Z,4.00
2019-02-04T23:09:12.951Z,4.10
2019-02-04T23:11:41.168Z,4.10
2019-02-04T23:14:09.595Z,4.10
2019-02-04T23:16:38.384Z,4.10
2019-02-04T23:19:08.170Z,3.80
2019-02-04T23:21:36.540Z,4.10
2019-02-04T23:24:06.070Z,4.10
2019-02-04T23:26:34.899Z,4.10
2019-02-04T23:29:04.829Z,4.10
2019-02-04T23:31:35.075Z,4.00
2019-02-04T23:34:04.115Z,4.10
2019-02-04T23:36:32.319Z,4.10
2019-02-04T23:39:01.212Z,4.10
2019-02-04T23:41:34.097Z,4.10
2019-02-04T23:49:00.728Z,3.90
2019-02-04T23:51:30.109Z,3.90
2019-02-04T23:53:59.808Z,3.90
2019-02-04T23:56:29.466Z,3.90
2019-02-04T23:58:58.492Z,3.70
